Time;durP1;ratioP1;P1;durP2;ratioP2;P2;SDS_P1;SDS_P2;PMS_P1;PMS_P2;Temp;Humidity;BMP_temperature;BMP_pressure;BME280_temperature;BME280_humidity;BME280_pressure;Samples;Min_cycle;Max_cycle;Signal;HPM_P1;HPM_P2
2021/11/30 03:45:46;;;;;;;9.02;6.07;;;3.60;95.90;;;;;;5878608;24;20379;31
2021/11/30 03:48:12;;;;;;;9.20;6.47;;;3.50;96.00;;;;;;4835581;29;20100;-80
2021/11/30 03:50:38;;;;;;;9.27;6.25;;;3.50;96.10;;;;;;4836716;29;20044;-80
2021/11/30 03:53:07;;;;;;;;;;;3.50;96.10;;;;;;4837213;29;20082;-80
2021/11/30 03:55:33;;;;;;;11.95;7.00;;;3.50;96.20;;;;;;4836800;29;19919;-80
2021/11/30 03:57:59;;;;;;;11.70;7.13;;;3.50;96.10;;;;;;4833596;29;20026;-80
2021/11/30 04:00:28;;;;;;;14.33;7.17;;;3.50;96.10;;;;;;4832010;29;20082;-80
2021/11/30 04:02:54;;;;;;;9.73;6.90;;;3.50;96.20;;;;;;4836902;29;20315;-80
2021/11/30 04:05:19;;;;;;;11.40;6.85;;;3.50;96.10;;;;;;4836745;29;20045;-80
2021/11/30 04:07:45;;;;;;;11.00;7.05;;;3.50;96.10;;;;;;4834082;29;20034;-80
2021/11/30 04:10:11;;;;;;;10.07;6.25;;;3.50;96.10;;;;;;4836675;29;20083;-80
2021/11/30 04:12:37;;;;;;;12.02;6.35;;;3.50;96.00;;;;;;4821259;29;20042;-80
2021/11/30 04:15:03;;;;;;;9.88;6.60;;;3.50;96.00;;;;;;4821333;29;20037;-80
2021/11/30 04:17:29;;;;;;;8.90;6.10;;;3.50;96.00;;;;;;4833517;29;20045;-80
2021/11/30 04:19:55;;;;;;;8.98;6.55;;;3.50;96.00;;;;;;4836312;29;20416;-80
2021/11/30 04:22:20;;;;;;;13.60;6.40;;;3.50;96.30;;;;;;4821483;29;20056;-80
2021/11/30 04:24:46;;;;;;;10.60;6.72;;;3.50;96.00;;;;;;4836374;29;20397;-80
2021/11/30 04:27:12;;;;;;;11.65;7.15;;;3.50;96.00;;;;;;4839693;29;20089;-80
2021/11/30 04:29:39;;;;;;;9.57;6.57;;;3.50;96.00;;;;;;4854813;29;20085;-81
2021/11/30 04:32:06;;;;;;;12.38;7.40;;;3.50;96.00;;;;;;4814726;29;20101;-80
2021/11/30 04:34:31;;;;;;;10.30;6.32;;;3.50;96.00;;;;;;4836633;29;20033;-80
2021/11/30 04:36:57;;;;;;;10.48;7.00;;;3.50;95.80;;;;;;4821372;29;20038;-81
2021/11/30 04:39:23;;;;;;;9.75;7.13;;;3.60;95.70;;;;;;4821103;29;20037;-80
2021/11/30 04:41:49;;;;;;;8.23;6.30;;;3.50;95.80;;;;;;4836328;29;20298;-80
2021/11/30 04:44:16;;;;;;;10.77;7.18;;;3.50;95.90;;;;;;4835811;29;20299;-80
2021/11/30 04:46:55;;;;;;;13.10;6.97;;;3.50;95.80;;;;;;4839435;29;20125;-80
2021/11/30 04:49:57;;;;;;;9.60;6.68;;;3.50;95.70;;;;;;4848229;29;20045;-80
2021/11/30 04:52:14;;;;;;;8.27;6.50;;;3.50;95.60;;;;;;4851269;29;20065;-80
2021/11/30 04:54:41;;;;;;;9.85;7.13;;;3.50;95.60;;;;;;4836438;29;20048;-80
2021/11/30 04:57:07;;;;;;;10.88;7.15;;;3.60;95.40;;;;;;4836056;29;20038;-80
2021/11/30 04:59:33;;;;;;;12.13;7.40;;;3.50;95.40;;;;;;4836063;29;20069;-80
2021/11/30 05:01:59;;;;;;;12.77;7.18;;;3.50;95.30;;;;;;4850986;29;20290;-80
2021/11/30 05:04:25;;;;;;;10.52;6.88;;;3.60;95.10;;;;;;4836262;29;20033;-80
2021/11/30 05:06:51;;;;;;;11.55;7.60;;;3.60;94.90;;;;;;4835840;29;20078;-81
2021/11/30 05:09:17;;;;;;;9.47;7.10;;;3.60;94.80;;;;;;4836204;29;20057;-80
2021/11/30 05:11:43;;;;;;;10.77;7.10;;;3.60;94.70;;;;;;4835942;29;20049;-80
2021/11/30 05:14:08;;;;;;;8.85;6.68;;;3.60;94.50;;;;;;4851110;29;20372;-80
2021/11/30 05:16:35;;;;;;;9.55;6.20;;;3.60;94.40;;;;;;4838556;29;20036;-80
2021/11/30 05:19:01;;;;;;;10.53;7.00;;;3.60;94.30;;;;;;4859124;29;20034;-80
2021/11/30 05:21:27;;;;;;;12.75;7.70;;;3.60;94.10;;;;;;4851037;29;20113;-80
2021/11/30 05:23:54;;;;;;;13.68;8.20;;;3.60;94.20;;;;;;4836044;29;20046;-80
2021/11/30 05:26:20;;;;;;;11.95;7.90;;;3.60;94.20;;;;;;4850658;29;20090;-81
2021/11/30 05:28:47;;;;;;;12.60;7.32;;;3.60;94.20;;;;;;4838747;29;20033;-80
2021/11/30 05:31:14;;;;;;;11.13;7.38;;;3.60;94.20;;;;;;4850824;29;20398;-80
2021/11/30 05:33:40;;;;;;;12.27;7.75;;;3.70;94.10;;;;;;4835823;29;20045;-80
2021/11/30 05:36:06;;;;;;;11.52;8.13;;;3.60;94.10;;;;;;4850929;29;20045;-80
2021/11/30 05:38:33;;;;;;;11.10;7.28;;;3.70;94.00;;;;;;4851563;29;20038;-80
2021/11/30 05:40:59;;;;;;;15.85;8.05;;;3.70;93.90;;;;;;4838934;29;20036;-80
2021/11/30 05:43:25;;;;;;;10.23;7.73;;;3.70;93.80;;;;;;4863105;29;20030;-81
2021/11/30 05:45:51;;;;;;;12.77;8.13;;;3.70;93.90;;;;;;4838659;29;20129;-81
2021/11/30 05:48:17;;;;;;;12.95;8.40;;;3.70;94.00;;;;;;4837240;29;20034;-80
2021/11/30 05:50:43;;;;;;;16.67;7.78;;;3.70;94.00;;;;;;4847321;29;20026;-81
2021/11/30 05:53:09;;;;;;;14.00;7.63;;;3.70;93.90;;;;;;4822800;29;20030;-80
2021/11/30 05:55:35;;;;;;;10.70;7.17;;;3.70;93.90;;;;;;4852996;29;20048;-81
2021/11/30 05:58:02;;;;;;;11.75;7.10;;;3.70;93.90;;;;;;4848248;29;20030;-80
2021/11/30 06:00:30;;;;;;;11.18;8.00;;;3.70;93.80;;;;;;4851045;29;20031;-80
2021/11/30 06:05:28;;;;;;;10.00;7.32;;;3.80;93.60;;;;;;4850806;29;20106;-80
2021/11/30 06:07:54;;;;;;;16.45;7.65;;;3.80;93.60;;;;;;4825845;29;20069;-80
2021/11/30 06:10:21;;;;;;;12.93;7.93;;;3.90;93.40;;;;;;4838148;29;20343;-80
2021/11/30 06:12:47;;;;;;;10.45;7.53;;;3.90;93.30;;;;;;4843315;29;20073;-80
2021/11/30 06:15:13;;;;;;;13.10;7.53;;;4.00;93.10;;;;;;4841449;29;20018;-80
2021/11/30 06:17:39;;;;;;;10.43;6.97;;;4.00;93.00;;;;;;4848577;29;20116;-80
2021/11/30 06:20:06;;;;;;;14.27;7.05;;;4.10;92.80;;;;;;4849858;29;20341;-80
2021/11/30 06:22:33;;;;;;;;;;;4.10;92.70;;;;;;4861128;29;20042;-82
2021/11/30 06:24:59;;;;;;;13.02;8.35;;;4.10;92.60;;;;;;4852788;29;19912;-82
2021/11/30 06:27:25;;;;;;;13.27;8.82;;;4.10;92.70;;;;;;4835559;29;20152;-80
2021/11/30 06:29:50;;;;;;;12.45;8.25;;;4.20;92.60;;;;;;4820305;29;20042;-80
2021/11/30 06:32:16;;;;;;;12.65;8.65;;;4.20;92.70;;;;;;4843332;29;20030;-80
2021/11/30 06:34:42;;;;;;;12.07;7.93;;;4.20;92.80;;;;;;4838260;29;20108;-81
2021/11/30 06:37:09;;;;;;;13.10;8.88;;;4.20;92.80;;;;;;4828538;29;20266;-81
2021/11/30 06:39:35;;;;;;;15.25;8.30;;;4.20;93.00;;;;;;4827818;29;20041;-81
2021/11/30 06:42:02;;;;;;;11.10;7.88;;;4.20;93.20;;;;;;4837934;29;20045;-81
2021/11/30 06:44:28;;;;;;;15.27;9.18;;;4.30;93.40;;;;;;4837784;29;20089;-81
2021/11/30 06:46:56;;;;;;;11.68;7.82;;;4.30;93.50;;;;;;4851679;29;20061;-81
2021/11/30 06:49:22;;;;;;;12.23;7.70;;;4.30;93.60;;;;;;4836171;29;20341;-81
2021/11/30 06:51:48;;;;;;;12.23;7.10;;;4.30;93.70;;;;;;4858371;29;20086;-81
2021/11/30 06:54:14;;;;;;;11.88;7.45;;;4.40;93.80;;;;;;4852214;29;20233;-80
2021/11/30 06:56:40;;;;;;;12.95;7.57;;;4.40;93.90;;;;;;4843562;29;20039;-80
2021/11/30 06:59:05;;;;;;;9.48;6.47;;;4.40;93.80;;;;;;4836625;29;20030;-80
2021/11/30 07:01:33;;;;;;;10.73;7.28;;;4.40;93.60;;;;;;4850412;29;20034;-81
2021/11/30 07:04:02;;;;;;;13.07;7.72;;;4.50;93.60;;;;;;4834594;29;20289;-81
2021/11/30 07:06:40;;;;;;;13.20;7.47;;;4.50;93.70;;;;;;4845655;29;20040;-81
2021/11/30 07:09:17;;;;;;;12.60;7.00;;;4.50;93.60;;;;;;4847044;29;20109;-81
2021/11/30 07:14:12;;;;;;;9.35;6.15;;;4.50;93.60;;;;;;4850496;29;20097;-80
2021/11/30 07:16:38;;;;;;;13.02;6.90;;;4.50;93.60;;;;;;4838503;29;20045;-80
2021/11/30 07:19:05;;;;;;;9.57;6.57;;;4.50;93.60;;;;;;4847126;29;20241;-80
2021/11/30 07:21:32;;;;;;;9.77;7.13;;;4.40;93.70;;;;;;4845324;29;20045;-80
2021/11/30 07:23:58;;;;;;;10.50;6.53;;;4.50;93.80;;;;;;4841966;29;20046;-80
2021/11/30 07:26:25;;;;;;;8.57;6.67;;;4.50;93.60;;;;;;4831306;29;20069;-80
2021/11/30 07:28:51;;;;;;;10.15;6.25;;;4.50;93.60;;;;;;4850180;29;20284;-80
2021/11/30 07:31:18;;;;;;;10.57;5.85;;;4.50;93.40;;;;;;4833684;29;20033;-80
2021/11/30 07:33:47;;;;;;;10.98;5.72;;;4.50;93.40;;;;;;4830236;29;20030;-80
2021/11/30 07:36:16;;;;;;;10.57;6.60;;;4.50;93.50;;;;;;4831013;29;20057;-80
2021/11/30 07:38:43;;;;;;;8.10;5.85;;;4.60;93.60;;;;;;4843731;29;20321;-80
2021/11/30 07:41:10;;;;;;;8.88;4.90;;;4.60;93.50;;;;;;4829441;29;20321;-80
2021/11/30 07:43:36;;;;;;;7.53;5.53;;;4.60;93.20;;;;;;4845153;29;20173;-80
2021/11/30 07:46:03;;;;;;;9.20;5.40;;;4.70;93.20;;;;;;4846496;29;20253;-80
2021/11/30 07:48:29;;;;;;;8.27;4.88;;;4.70;93.10;;;;;;4843752;29;20326;-80
2021/11/30 07:50:57;;;;;;;6.35;4.90;;;4.80;93.10;;;;;;4829254;29;20047;-80
2021/11/30 07:53:24;;;;;;;6.53;4.85;;;4.80;93.20;;;;;;4846633;29;20042;-80
2021/11/30 07:55:51;;;;;;;8.55;5.38;;;4.90;92.70;;;;;;4826129;29;20042;-79
2021/11/30 07:58:18;;;;;;;7.75;4.60;;;4.90;92.50;;;;;;4845615;29;20345;-80
2021/11/30 08:00:45;;;;;;;6.72;4.47;;;4.90;92.50;;;;;;4830924;29;20065;-79
2021/11/30 08:03:11;;;;;;;6.03;4.88;;;5.00;92.40;;;;;;4833996;29;20038;-80
2021/11/30 08:05:37;;;;;;;6.93;4.85;;;5.00;92.40;;;;;;4847694;29;20150;-81
2021/11/30 08:08:03;;;;;;;7.78;4.95;;;5.10;92.10;;;;;;4832385;29;20078;-80
2021/11/30 08:10:29;;;;;;;7.88;4.43;;;5.20;92.10;;;;;;4844842;29;20046;-81
2021/11/30 08:12:56;;;;;;;8.40;4.00;;;5.20;91.80;;;;;;4851254;29;20038;-81
2021/11/30 08:15:23;;;;;;;5.10;3.65;;;5.40;91.60;;;;;;4834966;29;20294;-80
2021/11/30 08:17:49;;;;;;;;;;;5.40;91.30;;;;;;4834132;29;20337;-80
2021/11/30 08:20:15;;;;;;;6.07;3.67;;;5.50;91.00;;;;;;4849867;29;19980;-80
2021/11/30 08:22:44;;;;;;;8.18;3.40;;;5.60;90.90;;;;;;4848581;29;20109;-80
2021/11/30 08:25:13;;;;;;;10.18;2.88;;;5.70;90.50;;;;;;4835456;29;20030;-81
2021/11/30 08:27:39;;;;;;;5.90;2.95;;;5.80;90.10;;;;;;4847534;29;20418;-81
2021/11/30 08:30:07;;;;;;;4.22;2.63;;;5.90;90.30;;;;;;4860379;29;20295;-81
2021/11/30 08:32:34;;;;;;;3.75;2.65;;;5.90;89.70;;;;;;4851741;29;20417;-81
2021/11/30 08:34:59;;;;;;;;;;;6.00;89.00;;;;;;4866457;29;20109;-81
2021/11/30 08:37:26;;;;;;;7.10;2.93;;;6.00;89.70;;;;;;4865922;29;20120;-81
2021/11/30 08:39:53;;;;;;;2.90;2.03;;;6.10;88.70;;;;;;4837880;29;20393;-81
2021/11/30 08:42:20;;;;;;;3.35;2.20;;;6.10;88.90;;;;;;4835734;29;20030;-81
2021/11/30 08:44:47;;;;;;;4.53;2.10;;;6.00;89.30;;;;;;4844353;29;20026;-81
2021/11/30 08:47:15;;;;;;;2.47;1.73;;;6.00;89.70;;;;;;4832519;29;20124;-81
2021/11/30 08:49:41;;;;;;;3.20;2.25;;;5.90;89.30;;;;;;4847180;29;20029;-80
2021/11/30 08:52:12;;;;;;;3.42;2.10;;;5.80;89.90;;;;;;4849080;29;20033;-81
2021/11/30 08:54:38;;;;;;;259.95;16.48;;;5.80;90.10;;;;;;4845053;29;20087;-81
2021/11/30 08:57:05;;;;;;;61.83;8.63;;;5.90;89.00;;;;;;4849965;29;20051;-81
2021/11/30 08:59:31;;;;;;;44.85;4.72;;;6.00;88.80;;;;;;4834924;29;20094;-81
2021/11/30 09:01:57;;;;;;;73.82;4.72;;;6.00;88.00;;;;;;4835343;29;20053;-81
2021/11/30 09:04:23;;;;;;;18.92;2.63;;;6.10;88.60;;;;;;4834844;29;20557;-81
2021/11/30 09:06:49;;;;;;;2.35;1.77;;;6.00;87.80;;;;;;4847092;29;20076;-81
2021/11/30 09:09:15;;;;;;;18.05;2.20;;;6.00;88.10;;;;;;4843621;29;20342;-81
2021/11/30 09:11:41;;;;;;;7.80;1.73;;;6.00;87.60;;;;;;4840166;29;20037;-81
2021/11/30 09:14:09;;;;;;;1.98;1.17;;;5.90;88.10;;;;;;4850538;29;20203;-81
2021/11/30 09:16:36;;;;;;;2.38;1.52;;;5.90;88.90;;;;;;4835340;29;20109;-81
2021/11/30 09:19:03;;;;;;;12.27;1.83;;;5.90;89.00;;;;;;4850300;29;20060;-80
2021/11/30 09:21:29;;;;;;;5.43;1.70;;;5.90;88.90;;;;;;4850677;29;20038;-80
2021/11/30 09:23:56;;;;;;;6.30;1.55;;;5.90;88.90;;;;;;4835242;29;20106;-81
2021/11/30 09:26:22;;;;;;;;;;;6.00;88.40;;;;;;4835766;29;20030;-80
2021/11/30 09:28:48;;;;;;;2.07;1.33;;;6.10;87.60;;;;;;4835274;29;19948;-81
2021/11/30 09:31:15;;;;;;;3.88;1.50;;;6.20;86.50;;;;;;4850486;29;20285;-81
2021/11/30 09:33:43;;;;;;;2.30;1.50;;;6.10;86.00;;;;;;4834806;29;20038;-80
2021/11/30 09:36:10;;;;;;;4.82;1.45;;;6.10;85.40;;;;;;4835392;29;20275;-80
2021/11/30 09:38:37;;;;;;;;;;;6.20;85.50;;;;;;4834853;29;20067;-80
2021/11/30 09:41:03;;;;;;;4.88;1.50;;;6.20;84.60;;;;;;4856837;29;19913;-81
2021/11/30 09:43:32;;;;;;;3.53;1.63;;;6.20;85.70;;;;;;4851399;29;20037;-80
2021/11/30 09:45:59;;;;;;;5.00;1.80;;;6.20;85.60;;;;;;4840019;29;20046;-80
2021/11/30 09:48:27;;;;;;;5.68;2.10;;;6.20;83.40;;;;;;4862407;29;20095;-81
2021/11/30 09:50:53;;;;;;;2.42;1.90;;;6.20;84.40;;;;;;4849988;29;20034;-81
2021/11/30 09:53:19;;;;;;;4.17;1.60;;;6.30;84.60;;;;;;4834807;29;20351;-80
2021/11/30 09:55:47;;;;;;;3.77;1.67;;;6.20;85.10;;;;;;4848151;29;20335;-80
2021/11/30 09:58:14;;;;;;;5.25;1.95;;;6.20;85.80;;;;;;4847357;29;20275;-80
2021/11/30 10:00:41;;;;;;;;;;;6.20;84.50;;;;;;4821707;29;20329;-80
2021/11/30 10:03:08;;;;;;;4.53;2.22;;;6.30;83.50;;;;;;4845042;29;20003;-80
2021/11/30 10:05:34;;;;;;;8.30;1.70;;;6.20;83.40;;;;;;4839654;29;20109;-80
2021/11/30 10:08:01;;;;;;;5.38;1.60;;;6.30;83.20;;;;;;4843613;29;20030;-80
2021/11/30 10:10:33;;;;;;;12.18;2.28;;;6.40;81.80;;;;;;4849325;29;20045;-80
2021/11/30 10:12:59;;;;;;;5.50;1.70;;;6.40;81.50;;;;;;4834624;29;20034;-81
2021/11/30 10:15:28;;;;;;;8.30;2.40;;;6.40;79.90;;;;;;4834655;29;20376;-80
2021/11/30 10:18:17;;;;;;;6.55;1.98;;;6.50;79.90;;;;;;4840069;29;20060;-81
2021/11/30 10:20:43;;;;;;;5.07;1.70;;;6.50;78.50;;;;;;4830147;29;20038;-80
2021/11/30 10:23:09;;;;;;;2.10;1.63;;;6.50;78.60;;;;;;4846925;29;20121;-81
2021/11/30 10:25:38;;;;;;;5.97;2.20;;;6.50;79.50;;;;;;4835502;29;20037;-80
2021/11/30 10:28:11;;;;;;;5.97;1.60;;;6.50;78.20;;;;;;4862607;29;20037;-80
2021/11/30 10:30:43;;;;;;;3.10;1.70;;;6.50;78.40;;;;;;4852806;29;20484;-80
2021/11/30 10:33:15;;;;;;;3.88;1.52;;;6.40;78.30;;;;;;4839586;29;20138;-81
2021/11/30 10:35:45;;;;;;;7.28;1.98;;;6.40;77.70;;;;;;4841003;29;20033;-79
2021/11/30 10:38:11;;;;;;;7.82;1.98;;;6.20;77.00;;;;;;4837316;29;20108;-79
2021/11/30 10:40:40;;;;;;;3.72;1.65;;;6.20;79.60;;;;;;4837633;29;20057;-79
2021/11/30 10:43:08;;;;;;;5.35;1.60;;;6.30;78.40;;;;;;4837303;29;20337;-80
2021/11/30 10:45:40;;;;;;;11.90;2.10;;;6.30;78.90;;;;;;4851613;29;20038;-79
2021/11/30 10:48:18;;;;;;;4.53;2.13;;;6.40;78.50;;;;;;4836930;29;20042;-80
2021/11/30 10:50:56;;;;;;;6.20;2.10;;;6.40;78.10;;;;;;4845814;29;20053;-80
2021/11/30 10:53:30;;;;;;;3.20;1.63;;;6.40;78.20;;;;;;4852498;29;20037;-79
2021/11/30 10:56:07;;;;;;;7.68;1.73;;;6.30;77.90;;;;;;4855848;29;20065;-80
2021/11/30 10:58:35;;;;;;;8.05;1.73;;;6.30;78.90;;;;;;4820069;29;20038;-79
2021/11/30 11:01:14;;;;;;;7.13;2.38;;;6.20;78.10;;;;;;4837112;29;20215;-80
2021/11/30 11:03:40;;;;;;;4.90;1.70;;;6.20;79.50;;;;;;4852386;29;20034;-80
2021/11/30 11:08:57;;;;;;;5.90;1.70;;;6.20;79.90;;;;;;4852693;29;20073;-80
2021/11/30 11:11:27;;;;;;;2.78;1.73;;;6.20;79.40;;;;;;4850662;29;20034;-80
2021/11/30 11:13:53;;;;;;;3.78;1.67;;;6.20;80.10;;;;;;4852363;29;20040;-80
2021/11/30 11:16:25;;;;;;;4.93;1.03;;;6.20;79.10;;;;;;4852403;29;20385;-80
2021/11/30 11:18:54;;;;;;;3.55;1.75;;;6.20;79.60;;;;;;4850062;29;20379;-80
2021/11/30 11:21:24;;;;;;;2.60;1.30;;;6.20;78.90;;;;;;4836829;29;20407;-80
2021/11/30 11:24:20;;;;;;;6.07;1.30;;;6.10;78.30;;;;;;4836808;29;20033;-80
2021/11/30 11:26:47;;;;;;;5.30;1.10;;;6.10;77.60;;;;;;4837285;29;20034;-80
2021/11/30 11:29:26;;;;;;;7.50;1.65;;;6.10;77.90;;;;;;4855612;29;20294;-79
2021/11/30 11:31:55;;;;;;;4.95;1.20;;;6.00;77.30;;;;;;4836675;29;20291;-80
2021/11/30 11:34:24;;;;;;;6.32;1.08;;;6.00;77.30;;;;;;4836228;29;20086;-80
2021/11/30 11:36:52;;;;;;;4.68;1.17;;;6.00;77.90;;;;;;4851824;29;20139;-80
2021/11/30 11:39:20;;;;;;;5.20;0.85;;;6.00;77.90;;;;;;4836423;29;20037;-80
2021/11/30 11:41:50;;;;;;;3.83;1.10;;;6.00;77.30;;;;;;4844916;29;20321;-80
2021/11/30 11:44:16;;;;;;;23.02;1.20;;;6.00;78.10;;;;;;4836675;29;20034;-80
2021/11/30 11:46:44;;;;;;;0.75;0.57;;;6.00;76.80;;;;;;4836409;29;20058;-80
2021/11/30 11:49:12;;;;;;;2.38;0.98;;;6.00;77.20;;;;;;4839195;29;20026;-80
2021/11/30 11:51:45;;;;;;;5.75;0.93;;;6.00;77.20;;;;;;4865994;29;20041;-80
2021/11/30 11:54:29;;;;;;;5.40;1.00;;;6.00;77.20;;;;;;4836406;29;20030;-79
2021/11/30 11:57:03;;;;;;;4.43;0.95;;;5.90;75.80;;;;;;4851494;29;20034;-80
2021/11/30 11:59:39;;;;;;;3.08;0.93;;;5.90;75.70;;;;;;4851026;29;20325;-79
2021/11/30 12:02:20;;;;;;;1.35;1.00;;;6.00;76.10;;;;;;4849286;29;20033;-79
2021/11/30 12:05:00;;;;;;;1.55;0.85;;;5.90;76.00;;;;;;4831899;29;20222;-80
2021/11/30 12:07:28;;;;;;;3.20;1.23;;;5.90;77.30;;;;;;4831365;29;20049;-80
2021/11/30 12:10:18;;;;;;;2.83;1.00;;;5.90;77.00;;;;;;4850660;29;20030;-78
2021/11/30 12:12:59;;;;;;;1.38;0.63;;;5.90;77.50;;;;;;4824216;29;20042;-80
2021/11/30 12:15:28;;;;;;;2.38;0.98;;;5.90;77.10;;;;;;4820899;29;20064;-80
2021/11/30 12:18:40;;;;;;;5.82;0.95;;;5.90;77.40;;;;;;4819026;29;20036;-80
2021/11/30 12:21:18;;;;;;;1.27;0.70;;;5.80;77.50;;;;;;4852679;29;20046;-79
2021/11/30 12:23:52;;;;;;;0.95;0.40;;;5.80;78.20;;;;;;4853373;29;20064;-80
2021/11/30 12:29:26;;;;;;;4.13;0.82;;;5.90;77.40;;;;;;4871780;29;20366;-79
2021/11/30 12:31:55;;;;;;;3.20;1.08;;;5.80;77.70;;;;;;4857465;29;20174;-79
2021/11/30 12:34:32;;;;;;;3.72;0.85;;;5.80;78.70;;;;;;4845662;29;20030;-79
2021/11/30 12:37:06;;;;;;;3.97;0.90;;;5.80;78.90;;;;;;4853787;29;20093;-80
2021/11/30 12:39:53;;;;;;;8.73;1.33;;;5.80;79.00;;;;;;4865206;29;20246;-80
2021/11/30 12:42:19;;;;;;;3.60;0.90;;;5.90;79.50;;;;;;4862360;29;20040;-80
2021/11/30 12:44:45;;;;;;;4.82;1.17;;;5.90;79.00;;;;;;4817643;29;20245;-80
2021/11/30 12:47:26;;;;;;;1.98;1.02;;;6.00;78.80;;;;;;4851978;29;20202;-80
2021/11/30 12:49:53;;;;;;;1.70;0.73;;;6.10;79.30;;;;;;4837008;29;20029;-80
2021/11/30 12:52:23;;;;;;;;;;;6.20;78.90;;;;;;4868276;29;20037;-80
2021/11/30 12:54:54;;;;;;;2.33;0.70;;;6.20;79.00;;;;;;4852939;29;19988;-80
2021/11/30 12:57:31;;;;;;;2.92;1.30;;;6.20;78.90;;;;;;4832093;29;20090;-80
2021/11/30 13:00:24;;;;;;;4.20;1.13;;;6.20;79.30;;;;;;4850388;29;20041;-80
2021/11/30 13:02:52;;;;;;;5.13;2.17;;;6.10;79.70;;;;;;4853998;29;20044;-80
2021/11/30 13:05:21;;;;;;;5.57;1.00;;;6.20;79.80;;;;;;4852377;29;20084;-80
2021/11/30 13:07:47;;;;;;;2.78;0.90;;;6.20;79.90;;;;;;4838854;29;20029;-79
2021/11/30 13:10:22;;;;;;;3.30;1.00;;;6.20;80.10;;;;;;4852312;29;20025;-80
2021/11/30 13:12:49;;;;;;;3.00;1.38;;;6.10;81.00;;;;;;4863319;29;20169;-80
2021/11/30 13:15:17;;;;;;;2.10;0.63;;;6.10;82.00;;;;;;4861369;29;20041;-80
2021/11/30 13:17:44;;;;;;;3.65;0.73;;;6.10;81.50;;;;;;4858512;29;20049;-79
2021/11/30 13:20:13;;;;;;;4.13;1.00;;;6.00;82.40;;;;;;4857540;29;20454;-80
2021/11/30 13:22:44;;;;;;;5.25;0.98;;;5.90;82.40;;;;;;4867978;29;20045;-80
2021/11/30 13:25:14;;;;;;;4.05;1.00;;;5.90;83.00;;;;;;4859383;29;20044;-80
2021/11/30 13:27:49;;;;;;;4.13;0.80;;;5.90;83.50;;;;;;4857870;29;20037;-80
2021/11/30 13:30:17;;;;;;;0.63;0.60;;;5.90;83.90;;;;;;4867261;29;20074;-80
2021/11/30 13:32:52;;;;;;;6.28;0.63;;;5.90;83.80;;;;;;4852165;29;20631;-80
2021/11/30 13:35:24;;;;;;;1.75;0.70;;;5.90;84.50;;;;;;4847679;29;20367;-80
2021/11/30 13:37:52;;;;;;;6.60;2.65;;;5.90;84.90;;;;;;4846621;29;20274;-80
2021/11/30 13:40:42;;;;;;;5.30;0.63;;;5.90;85.50;;;;;;4851128;29;20042;-80
2021/11/30 13:43:30;;;;;;;4.05;0.70;;;5.90;85.40;;;;;;4848378;29;20081;-80
2021/11/30 13:46:02;;;;;;;2.22;0.57;;;5.80;85.70;;;;;;4851113;29;20052;-80
2021/11/30 13:48:34;;;;;;;1.77;0.98;;;5.80;86.00;;;;;;4837477;29;20314;-80
2021/11/30 13:51:29;;;;;;;0.75;0.50;;;5.80;86.30;;;;;;4839679;29;20037;-80
2021/11/30 13:54:03;;;;;;;1.17;0.50;;;5.80;86.40;;;;;;4871158;29;20175;-80
2021/11/30 13:56:42;;;;;;;4.25;1.05;;;5.80;86.60;;;;;;4874837;29;20288;-80
2021/11/30 13:59:39;;;;;;;4.15;0.80;;;5.90;86.80;;;;;;4861432;29;20545;-80
2021/11/30 14:02:37;;;;;;;0.77;0.70;;;5.80;87.30;;;;;;4843322;29;20050;-80
2021/11/30 14:05:05;;;;;;;6.93;0.68;;;5.80;88.00;;;;;;4866664;29;20044;-79
2021/11/30 14:07:33;;;;;;;1.33;0.57;;;5.70;88.00;;;;;;4867900;29;20046;-79
2021/11/30 14:10:00;;;;;;;1.23;0.60;;;5.70;88.00;;;;;;4840461;29;20034;-80
2021/11/30 14:12:26;;;;;;;;;;;5.70;88.40;;;;;;4851133;29;20047;-80
2021/11/30 14:14:54;;;;;;;1.70;0.50;;;5.70;87.90;;;;;;4870619;29;19968;-80
2021/11/30 14:17:30;;;;;;;4.22;0.57;;;5.70;87.90;;;;;;4868719;29;20065;-80
2021/11/30 14:19:57;;;;;;;0.95;0.63;;;5.80;88.10;;;;;;4868989;29;20045;-80
2021/11/30 14:22:30;;;;;;;;;;;5.80;88.00;;;;;;4846177;29;20065;-80
2021/11/30 14:25:07;;;;;;;0.70;0.57;;;5.80;88.10;;;;;;4839633;29;19919;-80
2021/11/30 14:27:40;;;;;;;;;;;5.80;87.60;;;;;;4843817;29;20101;-80
2021/11/30 14:30:12;;;;;;;1.05;0.50;;;5.80;87.80;;;;;;4866962;29;20188;-80
2021/11/30 14:32:39;;;;;;;0.55;0.43;;;5.80;87.40;;;;;;4839491;29;20030;-80
2021/11/30 14:35:10;;;;;;;3.20;0.63;;;5.80;87.30;;;;;;4837472;29;20034;-80
2021/11/30 14:37:44;;;;;;;3.75;0.35;;;5.80;88.00;;;;;;4837042;29;20357;-80
2021/11/30 14:40:13;;;;;;;2.15;0.50;;;5.80;88.10;;;;;;4849626;29;20063;-80
2021/11/30 14:42:46;;;;;;;0.88;0.40;;;5.80;88.00;;;;;;4837287;29;20026;-80
2021/11/30 14:45:33;;;;;;;1.00;0.75;;;5.80;88.10;;;;;;4833913;29;20030;-80
2021/11/30 14:48:13;;;;;;;2.55;0.73;;;5.80;88.40;;;;;;4852224;29;20059;-80
2021/11/30 14:50:45;;;;;;;1.52;0.60;;;5.80;90.20;;;;;;4837149;29;20036;-81
2021/11/30 14:53:16;;;;;;;15.43;0.57;;;5.70;91.80;;;;;;4862914;29;20034;-80
2021/11/30 14:56:22;;;;;;;7.82;0.98;;;5.70;92.10;;;;;;4835085;29;20034;-81
2021/11/30 14:58:49;;;;;;;1.63;0.93;;;5.60;92.60;;;;;;4813662;29;20045;-81
2021/11/30 15:01:25;;;;;;;2.63;1.67;;;5.50;92.60;;;;;;4820398;29;20383;-80
2021/11/30 15:04:01;;;;;;;3.53;0.90;;;5.50;92.20;;;;;;4834678;29;20038;-80
2021/11/30 15:06:30;;;;;;;1.30;0.63;;;5.50;92.60;;;;;;4819273;29;20041;-80
2021/11/30 15:09:17;;;;;;;3.22;2.35;;;5.50;92.80;;;;;;4821667;29;20038;-82
2021/11/30 15:11:55;;;;;;;2.75;0.95;;;5.50;92.90;;;;;;4820726;29;20038;-81
2021/11/30 15:14:29;;;;;;;1.67;0.90;;;5.50;93.30;;;;;;4839273;29;20049;-81
2021/11/30 15:16:54;;;;;;;2.33;0.98;;;5.50;92.90;;;;;;4820039;29;20058;-81
2021/11/30 15:19:24;;;;;;;1.25;0.90;;;5.40;93.30;;;;;;4834935;29;20073;-81
2021/11/30 15:21:54;;;;;;;1.67;0.80;;;5.40;93.00;;;;;;4815416;29;20042;-81
2021/11/30 15:24:21;;;;;;;3.90;0.93;;;5.50;92.70;;;;;;4835194;29;20058;-81
2021/11/30 15:26:48;;;;;;;;;;;5.50;93.00;;;;;;4832190;29;20030;-82
2021/11/30 15:29:18;;;;;;;1.50;0.77;;;5.50;93.10;;;;;;4818600;29;19940;-81
2021/11/30 15:31:45;;;;;;;2.05;0.50;;;5.50;93.30;;;;;;4815234;29;20027;-82
2021/11/30 15:34:10;;;;;;;;;;;5.50;93.80;;;;;;4793573;29;20330;-82
2021/11/30 15:36:39;;;;;;;2.03;0.60;;;5.40;94.40;;;;;;4849657;29;19919;-83
2021/11/30 15:39:07;;;;;;;1.00;0.70;;;5.40;95.00;;;;;;4850830;29;20045;-83
2021/11/30 15:41:34;;;;;;;1.55;0.60;;;5.40;95.20;;;;;;4847440;29;20034;-82
2021/11/30 15:44:00;;;;;;;1.55;0.73;;;5.40;95.20;;;;;;4847390;29;20046;-82
2021/11/30 15:46:26;;;;;;;1.23;0.77;;;5.30;95.70;;;;;;4840101;29;20061;-82
2021/11/30 15:48:52;;;;;;;1.25;0.80;;;5.30;96.30;;;;;;4849084;29;20096;-82
2021/11/30 15:51:29;;;;;;;1.20;0.80;;;5.20;96.60;;;;;;4827906;29;20038;-83
2021/11/30 15:53:58;;;;;;;1.40;0.75;;;5.20;96.90;;;;;;4848681;29;20039;-82
2021/11/30 15:59:14;;;;;;;7.40;1.40;;;5.10;97.80;;;;;;4835613;29;20054;-82
2021/11/30 16:01:40;;;;;;;2.30;0.88;;;5.10;97.50;;;;;;4859417;29;20038;-82
2021/11/30 16:04:06;;;;;;;2.97;1.35;;;5.10;97.80;;;;;;4844615;29;20322;-83
2021/11/30 16:06:32;;;;;;;1.33;0.90;;;5.10;98.00;;;;;;4828352;29;20033;-82
2021/11/30 16:08:57;;;;;;;2.22;1.05;;;5.10;98.20;;;;;;4834408;29;20074;-83
2021/11/30 16:11:23;;;;;;;2.70;1.15;;;5.10;98.00;;;;;;4863095;29;20041;-82
2021/11/30 16:13:50;;;;;;;3.20;0.85;;;5.10;98.00;;;;;;4847809;29;20049;-81
2021/11/30 16:16:18;;;;;;;1.52;0.98;;;5.10;98.00;;;;;;4846616;29;20034;-82
2021/11/30 16:18:44;;;;;;;1.92;0.93;;;5.10;98.50;;;;;;4841995;29;20038;-83
2021/11/30 16:21:11;;;;;;;0.90;0.70;;;5.10;98.80;;;;;;4840161;29;20258;-82
2021/11/30 16:23:38;;;;;;;1.47;0.70;;;5.10;98.60;;;;;;4833792;29;20041;-82
2021/11/30 16:26:04;;;;;;;1.65;0.82;;;5.10;98.80;;;;;;4846137;29;20356;-82
2021/11/30 16:28:30;;;;;;;0.75;0.55;;;5.10;98.70;;;;;;4850958;29;20061;-82
2021/11/30 16:30:56;;;;;;;0.95;0.90;;;5.00;98.80;;;;;;4841823;29;20217;-82
2021/11/30 16:33:25;;;;;;;1.20;0.80;;;5.10;98.80;;;;;;4841112;29;20026;-82
2021/11/30 16:35:52;;;;;;;3.88;0.88;;;5.10;99.10;;;;;;4840543;29;20357;-82
2021/11/30 16:38:18;;;;;;;;;;;5.10;99.40;;;;;;4835050;29;20287;-83
2021/11/30 16:40:49;;;;;;;0.90;0.73;;;5.10;99.10;;;;;;4847384;29;19959;-82
2021/11/30 16:43:16;;;;;;;1.35;0.70;;;5.10;99.10;;;;;;4844506;29;20200;-82
2021/11/30 16:45:42;;;;;;;2.40;0.93;;;5.00;99.00;;;;;;4820922;29;20042;-82
2021/11/30 16:48:08;;;;;;;1.60;0.57;;;5.10;99.10;;;;;;4834983;29;20207;-82
2021/11/30 16:50:36;;;;;;;1.77;1.02;;;5.10;98.90;;;;;;4849075;29;20033;-83
2021/11/30 16:53:05;;;;;;;2.28;1.35;;;5.10;98.90;;;;;;4834004;29;20213;-82
2021/11/30 16:55:31;;;;;;;3.55;1.13;;;5.10;99.10;;;;;;4843085;29;20030;-85
2021/11/30 16:57:57;;;;;;;2.75;1.00;;;5.20;98.30;;;;;;4867494;29;20072;-82
2021/11/30 17:00:23;;;;;;;1.90;0.65;;;5.20;98.20;;;;;;4833114;29;20203;-82
2021/11/30 17:02:49;;;;;;;1.00;0.80;;;5.30;98.00;;;;;;4833406;29;20046;-83
2021/11/30 17:05:15;;;;;;;1.58;1.05;;;5.30;98.20;;;;;;4830553;29;20046;-83
2021/11/30 17:07:43;;;;;;;1.00;0.60;;;5.30;97.70;;;;;;4831912;29;20042;-82